createdAt,value
2023-03-24T00:00:37.828Z,94532.97
2023-03-24T00:03:05.729Z,94533.13
2023-03-24T00:05:33.548Z,94526.09
2023-03-24T00:08:02.879Z,94535.72
2023-03-24T00:10:34.846Z,94510.59
2023-03-24T00:13:02.844Z,94496.72
2023-03-24T00:15:31.550Z,94508.97
2023-03-24T00:18:00.755Z,94502.78
2023-03-24T00:20:29.040Z,94488.06
2023-03-24T00:22:58.569Z,94490.53
2023-03-24T00:25:29.354Z,94483.66
2023-03-24T00:27:58.171Z,94475.81
2023-03-24T00:30:26.670Z,94467.16
2023-03-24T00:32:54.740Z,94464.56
2023-03-24T00:35:23.888Z,94460.16
2023-03-24T00:37:52.246Z,94456.72
2023-03-24T00:40:21.765Z,94461.16
2023-03-24T00:42:51.229Z,94453.31
2023-03-24T00:45:22.844Z,94455.09
2023-03-24T00:47:54.062Z,94450.84
2023-03-24T00:50:26.995Z,94448.25
2023-03-24T00:52:58.265Z,94454.28
2023-03-24T00:55:28.461Z,94443.84
2023-03-24T00:57:56.376Z,94448.25
2023-03-24T01:00:25.950Z,94456.06
2023-03-24T01:02:56.967Z,94442.19
2023-03-24T01:05:28.472Z,94451.69
2023-03-24T01:07:57.914Z,94461.31
2023-03-24T01:10:27.095Z,94463.09
2023-03-24T01:12:56.979Z,94463.91
2023-03-24T01:15:27.935Z,94466.53
2023-03-24T01:17:55.821Z,94462.31
2023-03-24T01:20:24.654Z,94457.88
2023-03-24T01:22:54.116Z,94466.53
2023-03-24T01:25:23.746Z,94468.31
2023-03-24T01:27:53.570Z,94464.72
2023-03-24T01:30:24.138Z,94456.06
2023-03-24T01:32:53.120Z,94446.44
2023-03-24T01:35:21.942Z,94447.41
2023-03-24T01:37:49.875Z,94435.19
2023-03-24T01:40:23.075Z,94438.78
2023-03-24T01:42:51.916Z,94434.38
2023-03-24T01:45:43.042Z,94428.34
2023-03-24T01:48:15.469Z,94418.69
2023-03-24T01:50:46.671Z,94424.91
2023-03-24T01:53:15.442Z,94428.34
2023-03-24T01:55:47.919Z,94424.09
2023-03-24T01:58:16.566Z,94420.50
2023-03-24T02:00:44.955Z,94426.53
2023-03-24T02:03:18.399Z,94434.38
2023-03-24T02:05:49.038Z,94417.06
2023-03-24T02:08:21.786Z,94443.19
2023-03-24T02:10:53.482Z,94431.75
2023-03-24T02:13:22.213Z,94426.72
2023-03-24T02:16:03.585Z,94424.09
2023-03-24T02:18:44.880Z,94424.09
2023-03-24T02:21:54.353Z,94420.50
2023-03-24T02:25:04.596Z,94427.53
2023-03-24T02:27:53.327Z,94430.13
2023-03-24T02:31:07.538Z,94428.50
2023-03-24T02:34:11.167Z,94431.09
2023-03-24T02:37:06.029Z,94428.50
2023-03-24T02:39:48.121Z,94436.31
2023-03-24T02:42:27.207Z,94433.72
2023-03-24T02:45:08.653Z,94442.38
2023-03-24T02:47:46.643Z,94423.28
2023-03-24T02:50:21.640Z,94430.31
2023-03-24T02:52:54.065Z,94426.72
2023-03-24T02:55:28.918Z,94418.88
2023-03-24T02:58:01.080Z,94412.81
2023-03-24T03:00:32.789Z,94417.91
2023-03-24T03:03:07.637Z,94409.25
2023-03-24T03:05:38.064Z,94422.13
2023-03-24T03:08:10.503Z,94406.63
2023-03-24T03:10:43.475Z,94407.59
2023-03-24T03:13:17.741Z,94401.59
2023-03-24T03:15:50.850Z,94405.00
2023-03-24T03:18:24.050Z,94405.00
2023-03-24T03:20:55.623Z,94394.53
2023-03-24T03:23:29.267Z,94389.31
2023-03-24T03:26:05.896Z,94389.31
2023-03-24T03:28:35.091Z,94394.53
2023-03-24T03:31:06.681Z,94383.31
2023-03-24T03:33:39.597Z,94378.09
2023-03-24T03:36:12.979Z,94371.03
2023-03-24T03:38:50.231Z,94363.19
2023-03-24T03:41:20.293Z,94371.03
2023-03-24T03:43:49.882Z,94364.03
2023-03-24T03:46:18.850Z,94350.97
2023-03-24T03:48:47.395Z,94343.13
2023-03-24T03:51:16.755Z,94335.28
2023-03-24T03:53:49.733Z,94330.25
2023-03-24T03:56:23.185Z,94322.41
2023-03-24T03:58:51.100Z,94320.63
2023-03-24T04:01:21.099Z,94313.75
2023-03-24T04:04:07.571Z,94315.41
2023-03-24T04:06:40.965Z,94309.38
2023-03-24T04:09:24.284Z,94310.19
2023-03-24T04:12:08.075Z,94305.94
2023-03-24T04:14:51.186Z,94313.75
2023-03-24T04:17:30.966Z,94311.16
2023-03-24T04:20:06.948Z,94315.41
2023-03-24T04:22:46.661Z,94312.78
2023-03-24T04:25:19.804Z,94305.94
2023-03-24T04:28:01.001Z,94312.78
2023-03-24T04:30:39.969Z,94311.97
2023-03-24T04:33:17.578Z,94314.59
2023-03-24T04:35:49.260Z,94318.00
2023-03-24T04:38:25.633Z,94311.16
2023-03-24T04:40:55.875Z,94312.78
2023-03-24T04:43:29.507Z,94308.53
2023-03-24T04:45:58.653Z,94315.41
2023-03-24T04:48:26.932Z,94311.97
2023-03-24T04:50:57.154Z,94320.63
2023-03-24T04:53:25.478Z,94312.78
2023-03-24T04:56:07.607Z,94314.59
2023-03-24T04:58:36.545Z,94306.75
2023-03-24T05:01:05.882Z,94310.19
2023-03-24T05:03:37.943Z,94304.13
2023-03-24T05:06:06.662Z,94315.41
2023-03-24T05:08:34.431Z,94322.25
2023-03-24T05:11:02.112Z,94332.69
2023-03-24T05:13:29.799Z,94343.94
2023-03-24T05:15:59.235Z,94345.56
2023-03-24T05:18:26.924Z,94342.94
2023-03-24T05:20:54.719Z,94364.66
2023-03-24T05:23:22.582Z,94362.88
2023-03-24T05:25:50.237Z,94363.69
2023-03-24T05:28:18.191Z,94361.91
2023-03-24T05:30:45.883Z,94369.56
2023-03-24T05:33:15.013Z,94365.31
2023-03-24T05:35:42.793Z,94373.97
2023-03-24T05:38:10.695Z,94365.31
2023-03-24T05:40:38.441Z,94371.16
2023-03-24T05:43:06.268Z,94358.28
2023-03-24T05:45:33.857Z,94355.69
2023-03-24T05:48:01.474Z,94351.28
2023-03-24T05:50:30.565Z,94363.50
2023-03-24T05:52:58.170Z,94375.59
2023-03-24T05:55:25.797Z,94366.75
2023-03-24T05:57:54.011Z,94369.38
2023-03-24T06:00:23.390Z,94368.56
2023-03-24T06:02:51.521Z,94358.94
2023-03-24T06:05:20.297Z,94369.38
2023-03-24T06:07:49.331Z,94361.53
2023-03-24T06:10:18.387Z,94356.31
2023-03-24T06:12:46.350Z,94333.81
2023-03-24T06:15:17.388Z,94323.38
2023-03-24T06:17:46.120Z,94315.53
2023-03-24T06:20:16.138Z,94328.59
2023-03-24T06:22:45.188Z,94326.75
2023-03-24T06:25:16.553Z,94326.75
2023-03-24T06:27:46.078Z,94318.94
2023-03-24T06:30:16.312Z,94317.13
2023-03-24T06:32:46.724Z,94318.16
2023-03-24T06:35:15.762Z,94324.16
2023-03-24T06:37:43.531Z,94315.53
2023-03-24T06:40:15.852Z,94312.91
2023-03-24T06:42:44.936Z,94313.72
2023-03-24T06:45:12.781Z,94314.72
2023-03-24T06:47:40.651Z,94303.25
2023-03-24T06:50:09.330Z,94305.09
2023-03-24T06:52:37.365Z,94305.09
2023-03-24T06:55:06.150Z,94312.91
2023-03-24T06:57:33.909Z,94310.31
2023-03-24T07:00:03.852Z,94307.69
2023-03-24T07:02:35.536Z,94306.06
2023-03-24T07:05:06.817Z,94317.31
2023-03-24T07:10:07.319Z,94328.59
2023-03-24T07:12:36.488Z,94333.00
2023-03-24T07:15:07.281Z,94335.78
2023-03-24T07:17:34.985Z,94342.63
2023-03-24T07:20:05.806Z,94338.22
2023-03-24T07:22:33.467Z,94350.47
2023-03-24T07:25:04.576Z,94356.69
2023-03-24T07:27:33.587Z,94358.28
2023-03-24T07:30:01.523Z,94382.63
2023-03-24T07:32:34.734Z,94397.47
2023-03-24T07:35:02.617Z,94403.50
2023-03-24T07:37:30.227Z,94396.50
2023-03-24T07:39:58.632Z,94402.69
2023-03-24T07:42:26.454Z,94409.56
2023-03-24T07:44:54.064Z,94417.41
2023-03-24T07:47:21.695Z,94413.78
2023-03-24T07:49:50.727Z,94426.03
2023-03-24T07:52:18.744Z,94432.88
2023-03-24T07:54:46.721Z,94423.25
2023-03-24T07:57:14.346Z,94426.03
2023-03-24T07:59:42.030Z,94420.00
2023-03-24T08:02:17.566Z,94424.22
2023-03-24T08:04:46.653Z,94424.41
2023-03-24T08:07:15.775Z,94435.69
2023-03-24T08:09:43.398Z,94427.03
2023-03-24T08:12:20.072Z,94424.41
2023-03-24T08:14:48.455Z,94419.19
2023-03-24T08:17:16.071Z,94426.19
2023-03-24T08:19:58.249Z,94424.41
2023-03-24T08:22:27.959Z,94421.81
2023-03-24T08:24:55.628Z,94423.59
2023-03-24T08:27:24.085Z,94431.41
2023-03-24T08:29:51.694Z,94434.84
2023-03-24T08:32:19.335Z,94436.66
2023-03-24T08:34:46.957Z,94439.25
2023-03-24T08:37:14.587Z,94438.44
2023-03-24T08:39:43.581Z,94438.44
2023-03-24T08:42:11.233Z,94435.81
2023-03-24T08:44:39.246Z,94442.69
2023-03-24T08:47:06.956Z,94449.72
2023-03-24T08:49:34.582Z,94465.38
2023-03-24T08:52:02.226Z,94458.38
2023-03-24T08:54:29.804Z,94451.50
2023-03-24T08:56:58.766Z,94455.75
2023-03-24T08:59:26.460Z,94472.25
2023-03-24T09:01:54.181Z,94465.38
2023-03-24T09:04:21.783Z,94456.72
2023-03-24T09:06:49.872Z,94455.94
2023-03-24T09:09:17.489Z,94459.34
2023-03-24T09:11:45.157Z,94453.31
2023-03-24T09:14:14.213Z,94462.75
2023-03-24T09:16:43.897Z,94469.63
2023-03-24T09:19:11.689Z,94469.63
2023-03-24T09:21:39.288Z,94462.59
2023-03-24T09:24:07.270Z,94476.47
2023-03-24T09:26:35.034Z,94467.81
2023-03-24T09:29:02.695Z,94480.88
2023-03-24T09:31:31.797Z,94487.91
2023-03-24T09:34:03.783Z,94493.94
2023-03-24T09:36:31.830Z,94492.16
2023-03-24T09:38:59.489Z,94514.84
2023-03-24T09:41:31.888Z,94503.59
2023-03-24T09:44:05.655Z,94505.38
2023-03-24T09:46:38.191Z,94499.16
2023-03-24T09:49:05.977Z,94508.00
2023-03-24T09:51:40.691Z,94507.16
2023-03-24T09:54:15.698Z,94497.53
2023-03-24T09:56:48.211Z,94513.22
2023-03-24T09:59:20.725Z,94518.44
2023-03-24T10:01:50.511Z,94521.06
2023-03-24T10:04:21.000Z,94520.22
2023-03-24T10:06:53.321Z,94520.22
2023-03-24T10:09:25.986Z,94519.25
2023-03-24T10:12:07.744Z,94519.41
2023-03-24T10:14:47.918Z,94531.50
2023-03-24T10:17:25.576Z,94528.06
2023-03-24T10:20:00.301Z,94542.13
2023-03-24T10:22:35.403Z,94536.72
2023-03-24T10:25:12.298Z,94542.91
2023-03-24T10:27:46.075Z,94543.75
2023-03-24T10:30:18.348Z,94547.34
2023-03-24T10:32:47.559Z,94551.75
2023-03-24T10:35:22.866Z,94549.97
2023-03-24T10:37:52.163Z,94537.69
2023-03-24T10:40:33.522Z,94545.53
2023-03-24T10:43:07.312Z,94548.97
2023-03-24T10:45:40.784Z,94543.09
2023-03-24T10:48:10.126Z,94552.56
2023-03-24T10:50:44.285Z,94548.13
2023-03-24T10:53:19.121Z,94556.78
2023-03-24T10:55:47.999Z,94557.63
2023-03-24T10:58:21.345Z,94565.47
2023-03-24T11:00:50.088Z,94573.28
2023-03-24T11:03:27.614Z,94566.28
2023-03-24T11:06:00.226Z,94555.00
2023-03-24T11:08:32.886Z,94560.22
2023-03-24T11:11:01.165Z,94556.63
2023-03-24T11:13:31.674Z,94556.63
2023-03-24T11:16:10.052Z,94555.00
2023-03-24T11:18:39.402Z,94552.41
2023-03-24T11:21:08.227Z,94543.75
2023-03-24T11:23:39.888Z,94547.19
2023-03-24T11:26:13.514Z,94564.63
2023-03-24T11:28:44.480Z,94552.41
2023-03-24T11:31:19.100Z,94525.44
2023-03-24T11:33:56.675Z,94507.16
2023-03-24T11:36:45.374Z,94506.34
2023-03-24T11:39:18.913Z,94493.28
2023-03-24T11:41:54.102Z,94498.50
2023-03-24T11:44:24.248Z,94495.91
2023-03-24T11:46:56.061Z,94489.06
2023-03-24T11:49:30.418Z,94488.88
2023-03-24T11:51:58.474Z,94480.22
2023-03-24T11:54:32.968Z,94480.22
2023-03-24T11:57:05.717Z,94483.66
2023-03-24T11:59:38.416Z,94482.69
2023-03-24T12:02:18.010Z,94477.47
2023-03-24T12:05:10.927Z,94478.25
2023-03-24T12:08:03.034Z,94475.66
2023-03-24T12:10:59.458Z,94479.91
2023-03-24T12:13:34.258Z,94472.06
2023-03-24T12:16:13.849Z,94465.84
2023-03-24T12:18:56.763Z,94458.84
2023-03-24T12:21:38.503Z,94448.38
2023-03-24T12:24:19.227Z,94449.19
2023-03-24T12:26:48.907Z,94452.78
2023-03-24T12:29:34.014Z,94453.59
2023-03-24T12:32:30.790Z,94459.66
2023-03-24T12:35:20.695Z,94463.91
2023-03-24T12:37:58.509Z,94459.66
2023-03-24T12:40:49.939Z,94463.91
2023-03-24T12:43:29.208Z,94460.47
2023-03-24T12:46:00.036Z,94463.09
2023-03-24T12:48:47.536Z,94466.53
2023-03-24T12:51:27.748Z,94476.97
2023-03-24T12:54:08.479Z,94470.91
2023-03-24T12:56:42.006Z,94477.75
2023-03-24T12:59:14.556Z,94468.31
2023-03-24T13:01:45.954Z,94477.94
2023-03-24T13:04:20.975Z,94476.16
2023-03-24T13:06:53.207Z,94477.94
2023-03-24T13:09:33.283Z,94483.97
2023-03-24T13:12:08.084Z,94482.19
2023-03-24T13:14:47.835Z,94491.81
2023-03-24T13:17:20.934Z,94490.81
2023-03-24T13:19:51.928Z,94488.38
2023-03-24T13:22:22.343Z,94475.31
2023-03-24T13:24:53.197Z,94459.66
2023-03-24T13:27:24.929Z,94465.69
2023-03-24T13:30:14.832Z,94459.66
2023-03-24T13:32:45.920Z,94458.84
2023-03-24T13:35:21.824Z,94458.84
2023-03-24T13:37:53.404Z,94445.78
2023-03-24T13:40:24.747Z,94450.16
2023-03-24T13:42:55.934Z,94447.41
2023-03-24T13:45:34.322Z,94439.56
2023-03-24T13:48:16.493Z,94435.31
2023-03-24T13:50:54.508Z,94436.97
2023-03-24T13:53:33.340Z,94419.66
2023-03-24T13:56:05.786Z,94410.03
2023-03-24T13:58:49.315Z,94413.47
2023-03-24T14:01:32.727Z,94403.97
2023-03-24T14:04:23.138Z,94397.78
2023-03-24T14:06:52.186Z,94383.91
2023-03-24T14:09:22.640Z,94376.06
2023-03-24T14:12:09.479Z,94358.59
2023-03-24T14:14:57.853Z,94362.03
2023-03-24T14:17:25.555Z,94376.06
2023-03-24T14:20:25.617Z,94362.03
2023-03-24T14:22:54.118Z,94364.78
2023-03-24T14:25:30.616Z,94366.44
2023-03-24T14:28:19.426Z,94359.44
2023-03-24T14:31:02.971Z,94362.03
2023-03-24T14:33:31.549Z,94365.63
2023-03-24T14:36:04.848Z,94365.44
2023-03-24T14:38:37.992Z,94354.19
2023-03-24T14:41:14.309Z,94347.34
2023-03-24T14:43:58.171Z,94354.34
2023-03-24T14:46:39.024Z,94347.34
2023-03-24T14:49:17.431Z,94337.84
2023-03-24T14:51:49.638Z,94343.91
2023-03-24T14:54:20.068Z,94351.72
2023-03-24T14:56:52.783Z,94350.91
2023-03-24T14:59:31.483Z,94363.00
2023-03-24T15:02:06.173Z,94364.78
2023-03-24T15:04:39.270Z,94360.38
2023-03-24T15:07:07.844Z,94368.41
2023-03-24T15:09:38.416Z,94366.59
2023-03-24T15:12:06.584Z,94371.03
2023-03-24T15:14:36.818Z,94376.25
2023-03-24T15:17:09.953Z,94377.03
2023-03-24T15:19:37.610Z,94382.25
2023-03-24T15:22:11.604Z,94380.47
2023-03-24T15:24:41.858Z,94391.91
2023-03-24T15:27:24.559Z,94387.47
2023-03-24T15:29:58.844Z,94389.31
2023-03-24T15:32:31.957Z,94395.31
2023-03-24T15:35:01.685Z,94392.72
2023-03-24T15:37:34.855Z,94403.16
2023-03-24T15:40:15.627Z,94404.78
2023-03-24T15:42:46.256Z,94408.22
2023-03-24T15:45:24.459Z,94409.19
2023-03-24T15:47:54.488Z,94420.47
2023-03-24T15:50:34.002Z,94433.53
2023-03-24T15:53:04.126Z,94436.97
2023-03-24T15:55:34.631Z,94433.53
2023-03-24T15:58:04.387Z,94432.56
2023-03-24T16:00:41.080Z,94455.25
2023-03-24T16:03:09.922Z,94447.41
2023-03-24T16:05:48.318Z,94457.03
2023-03-24T16:08:27.822Z,94446.59
2023-03-24T16:11:01.088Z,94456.06
2023-03-24T16:13:29.238Z,94455.25
2023-03-24T16:16:00.110Z,94457.88
2023-03-24T16:18:32.949Z,94461.44
2023-03-24T16:21:02.361Z,94457.03
2023-03-24T16:23:30.989Z,94477.13
2023-03-24T16:25:58.618Z,94483.16
2023-03-24T16:28:27.657Z,94477.94
2023-03-24T16:31:00.937Z,94474.50
2023-03-24T16:33:30.325Z,94464.88
2023-03-24T16:35:58.093Z,94449.38
2023-03-24T16:38:26.179Z,94446.59
2023-03-24T16:40:55.283Z,94445.78
2023-03-24T16:43:23.443Z,94444.94
2023-03-24T16:45:51.737Z,94444.94
2023-03-24T16:48:20.768Z,94437.13
2023-03-24T16:50:51.710Z,94445.94
2023-03-24T16:53:21.272Z,94448.56
2023-03-24T16:55:48.979Z,94418.03
2023-03-24T16:58:18.253Z,94420.66
2023-03-24T17:00:49.117Z,94381.47
2023-03-24T17:03:17.992Z,94397.13
2023-03-24T17:05:48.712Z,94410.19
2023-03-24T17:08:16.518Z,94423.25
2023-03-24T17:10:45.302Z,94428.50
2023-03-24T17:13:19.371Z,94437.13
2023-03-24T17:15:47.047Z,94452.78
2023-03-24T17:18:14.948Z,94455.41
2023-03-24T17:20:42.681Z,94453.59
2023-03-24T17:23:14.336Z,94454.44
2023-03-24T17:25:41.945Z,94465.69
2023-03-24T17:28:14.636Z,94463.09
2023-03-24T17:30:42.552Z,94466.53
2023-03-24T17:33:13.229Z,94457.03
2023-03-24T17:35:41.141Z,94465.69
2023-03-24T17:38:08.765Z,94465.69
2023-03-24T17:40:37.741Z,94462.25
2023-03-24T17:43:05.573Z,94462.25
2023-03-24T17:45:33.147Z,94443.16
2023-03-24T17:48:00.944Z,94449.19
2023-03-24T17:50:30.687Z,94437.13
2023-03-24T17:53:00.587Z,94440.53
2023-03-24T17:55:28.246Z,94441.38
2023-03-24T17:57:57.200Z,94437.94
2023-03-24T18:00:24.863Z,94438.75
2023-03-24T18:02:52.623Z,94435.31
2023-03-24T18:05:20.468Z,94439.72
2023-03-24T18:07:48.118Z,94437.13
2023-03-24T18:10:15.777Z,94440.53
2023-03-24T18:12:43.381Z,94447.56
2023-03-24T18:15:12.828Z,94452.78
2023-03-24T18:17:40.736Z,94450.16
2023-03-24T18:20:12.058Z,94434.50
2023-03-24T18:22:41.019Z,94442.34
2023-03-24T18:25:10.693Z,94438.94
2023-03-24T18:27:38.840Z,94446.78
2023-03-24T18:30:09.573Z,94457.22
2023-03-24T18:32:39.060Z,94464.88
2023-03-24T18:35:08.162Z,94464.88
2023-03-24T18:37:36.432Z,94457.88
2023-03-24T18:40:07.150Z,94471.88
2023-03-24T18:42:34.843Z,94466.53
2023-03-24T18:45:02.547Z,94453.47
2023-03-24T18:47:30.224Z,94447.41
2023-03-24T18:49:59.260Z,94449.03
2023-03-24T18:52:27.151Z,94450.84
2023-03-24T18:54:54.831Z,94459.47
2023-03-24T18:57:22.441Z,94464.69
2023-03-24T18:59:50.098Z,94471.56
2023-03-24T19:02:17.751Z,94471.56
2023-03-24T19:04:46.227Z,94475.00
2023-03-24T19:07:16.423Z,94486.25
2023-03-24T19:09:44.083Z,94497.50
2023-03-24T19:12:11.696Z,94508.78
2023-03-24T19:14:39.301Z,94512.22
2023-03-24T19:17:06.914Z,94507.00
2023-03-24T19:19:34.660Z,94509.59
2023-03-24T19:22:02.744Z,94514.84
2023-03-24T19:24:31.730Z,94519.22
2023-03-24T19:26:59.339Z,94523.47
2023-03-24T19:29:26.891Z,94525.28
2023-03-24T19:31:54.505Z,94528.69
2023-03-24T19:34:22.102Z,94534.91
2023-03-24T19:36:51.416Z,94546.19
2023-03-24T19:39:19.026Z,94554.81
2023-03-24T19:41:47.982Z,94575.72
2023-03-24T19:44:15.575Z,94563.47
2023-03-24T19:46:43.214Z,94571.47
2023-03-24T19:49:10.996Z,94570.66
2023-03-24T19:51:38.584Z,94576.72
2023-03-24T19:54:06.210Z,94571.47
2023-03-24T19:56:33.824Z,94570.66
2023-03-24T19:59:02.788Z,94560.22
2023-03-24T20:01:34.895Z,94559.25
2023-03-24T20:04:02.804Z,94565.25
2023-03-24T20:06:30.837Z,94566.25
2023-03-24T20:08:58.454Z,94564.47
2023-03-24T20:11:26.032Z,94575.06
2023-03-24T20:13:53.628Z,94561.84
2023-03-24T20:16:22.591Z,94563.66
2023-03-24T20:18:50.438Z,94558.41
2023-03-24T20:21:22.277Z,94541.75
2023-03-24T20:23:49.989Z,94535.72
2023-03-24T20:26:18.104Z,94539.13
2023-03-24T20:28:46.006Z,94546.00
2023-03-24T20:31:14.399Z,94548.63
2023-03-24T20:33:43.325Z,94541.59
2023-03-24T20:36:11.127Z,94543.38
2023-03-24T20:38:38.904Z,94535.56
2023-03-24T20:41:08.127Z,94539.81
2023-03-24T20:43:37.448Z,94525.94
2023-03-24T20:46:06.633Z,94526.91
2023-03-24T20:48:35.206Z,94525.94
2023-03-24T20:51:05.775Z,94525.94
2023-03-24T20:53:34.874Z,94522.50
2023-03-24T20:56:06.537Z,94527.88
2023-03-24T20:58:35.061Z,94529.50
2023-03-24T21:01:05.956Z,94520.69
2023-03-24T21:03:33.586Z,94522.50
2023-03-24T21:06:01.355Z,94531.16
2023-03-24T21:08:30.421Z,94534.72
2023-03-24T21:10:58.438Z,94524.28
2023-03-24T21:13:37.014Z,94530.31
2023-03-24T21:16:08.078Z,94523.47
2023-03-24T21:18:36.740Z,94526.91
2023-03-24T21:21:05.220Z,94530.50
2023-03-24T21:23:39.132Z,94527.06
2023-03-24T21:26:09.151Z,94532.13
2023-03-24T21:28:36.752Z,94527.88
2023-03-24T21:31:09.327Z,94528.69
2023-03-24T21:33:40.135Z,94533.91
2023-03-24T21:36:09.158Z,94540.94
2023-03-24T21:38:39.134Z,94544.53
2023-03-24T21:41:07.523Z,94536.69
2023-03-24T21:43:35.705Z,94544.53
2023-03-24T21:46:04.035Z,94536.69
2023-03-24T21:48:34.971Z,94537.53
2023-03-24T21:51:03.903Z,94551.53
2023-03-24T21:53:31.984Z,94564.59
2023-03-24T21:56:04.865Z,94572.31
2023-03-24T21:58:33.546Z,94573.09
2023-03-24T22:01:02.209Z,94565.44
2023-03-24T22:03:30.373Z,94568.69
2023-03-24T22:05:58.479Z,94568.69
2023-03-24T22:08:30.539Z,94564.47
2023-03-24T22:10:59.230Z,94574.91
2023-03-24T22:13:29.514Z,94573.09
2023-03-24T22:15:59.261Z,94574.09
2023-03-24T22:18:28.951Z,94577.53
2023-03-24T22:20:58.496Z,94575.72
2023-03-24T22:23:26.411Z,94573.09
2023-03-24T22:25:54.024Z,94580.94
2023-03-24T22:28:21.662Z,94580.94
2023-03-24T22:30:51.140Z,94576.72
2023-03-24T22:33:18.819Z,94582.75
2023-03-24T22:35:46.528Z,94582.91
2023-03-24T22:38:15.975Z,94580.13
2023-03-24T22:40:43.718Z,94580.13
2023-03-24T22:43:11.330Z,94591.38
2023-03-24T22:45:39.099Z,94593.19
2023-03-24T22:48:08.188Z,94581.09
2023-03-24T22:50:35.873Z,94584.53
2023-03-24T22:53:03.517Z,94593.34
2023-03-24T22:55:31.083Z,94591.72
2023-03-24T22:57:58.707Z,94587.31
2023-03-24T23:00:26.309Z,94593.53
2023-03-24T23:02:53.987Z,94596.97
2023-03-24T23:05:23.072Z,94588.28
2023-03-24T23:07:51.013Z,94590.91
2023-03-24T23:10:18.780Z,94605.75
2023-03-24T23:12:46.408Z,94614.59
2023-03-24T23:15:17.844Z,94628.31
2023-03-24T23:17:45.899Z,94619.66
2023-03-24T23:20:15.505Z,94624.88
2023-03-24T23:22:44.463Z,94629.13
2023-03-24T23:25:13.374Z,94632.53
2023-03-24T23:27:41.722Z,94621.13
2023-03-24T23:30:12.294Z,94619.16
2023-03-24T23:32:41.364Z,94616.53
2023-03-24T23:35:11.327Z,94609.53
2023-03-24T23:37:39.706Z,94611.31
2023-03-24T23:40:12.909Z,94613.94
2023-03-24T23:42:42.697Z,94611.31
2023-03-24T23:45:14.740Z,94614.91
2023-03-24T23:47:43.701Z,94607.88
2023-03-24T23:50:12.415Z,94614.75
2023-03-24T23:52:41.245Z,94612.13
2023-03-24T23:55:11.488Z,94621.75
2023-03-24T23:57:39.548Z,94624.38
